createdAt,value
2023-03-24T00:01:53.503Z,10.33
2023-03-24T00:04:20.382Z,10.31
2023-03-24T00:06:49.391Z,10.25
2023-03-24T00:09:17.029Z,10.31
2023-03-24T00:11:44.274Z,10.18
2023-03-24T00:14:12.291Z,10.35
2023-03-24T00:16:42.556Z,10.32
2023-03-24T00:19:16.118Z,10.28
2023-03-24T00:21:44.394Z,10.36
2023-03-24T00:24:12.740Z,10.42
2023-03-24T00:26:41.011Z,10.38
2023-03-24T00:29:10.986Z,10.33
2023-03-24T00:31:40.122Z,10.37
2023-03-24T00:34:08.842Z,10.46
2023-03-24T00:36:36.605Z,10.41
2023-03-24T00:39:06.314Z,10.44
2023-03-24T00:41:33.472Z,10.32
2023-03-24T00:44:03.540Z,10.40
2023-03-24T00:46:30.510Z,10.39
2023-03-24T00:49:06.254Z,10.41
2023-03-24T00:51:36.397Z,10.42
2023-03-24T00:54:03.143Z,10.43
2023-03-24T00:56:32.193Z,10.46
2023-03-24T00:58:58.919Z,10.44
2023-03-24T01:01:29.269Z,10.48
2023-03-24T01:03:56.953Z,10.42
2023-03-24T01:06:24.580Z,10.43
2023-03-24T01:08:53.991Z,10.51
2023-03-24T01:11:26.147Z,10.41
2023-03-24T01:13:54.650Z,10.57
2023-03-24T01:16:25.801Z,10.62
2023-03-24T01:18:52.836Z,10.55
2023-03-24T01:21:19.671Z,10.56
2023-03-24T01:23:46.360Z,10.62
2023-03-24T01:26:12.965Z,10.63
2023-03-24T01:28:41.317Z,10.67
2023-03-24T01:31:09.935Z,10.58
2023-03-24T01:33:38.145Z,10.62
2023-03-24T01:36:07.140Z,10.62
2023-03-24T01:38:34.343Z,10.62
2023-03-24T01:41:01.300Z,10.46
2023-03-24T01:43:32.964Z,10.63
2023-03-24T01:46:14.746Z,10.71
2023-03-24T01:48:56.419Z,10.66
2023-03-24T01:51:35.279Z,10.68
2023-03-24T01:54:14.817Z,10.56
2023-03-24T01:56:45.969Z,10.62
2023-03-24T01:59:17.908Z,10.61
2023-03-24T02:01:45.471Z,10.61
2023-03-24T02:04:13.208Z,10.68
2023-03-24T02:06:44.076Z,10.69
2023-03-24T02:09:12.505Z,10.69
2023-03-24T02:11:40.775Z,10.57
2023-03-24T02:14:08.557Z,10.68
2023-03-24T02:16:46.872Z,10.68
2023-03-24T02:19:44.814Z,10.69
2023-03-24T02:22:49.908Z,10.72
2023-03-24T02:25:25.697Z,10.71
2023-03-24T02:28:17.158Z,10.72
2023-03-24T02:31:06.443Z,10.73
2023-03-24T02:33:52.058Z,10.68
2023-03-24T02:37:06.999Z,10.29
2023-03-24T02:39:55.133Z,10.48
2023-03-24T02:42:50.636Z,9.76
2023-03-24T02:45:22.913Z,10.13
2023-03-24T02:48:10.937Z,9.94
2023-03-24T02:50:59.165Z,9.76
2023-03-24T02:53:54.803Z,9.75
2023-03-24T02:56:47.561Z,9.74
2023-03-24T02:59:25.852Z,9.65
2023-03-24T03:02:07.751Z,9.59
2023-03-24T03:04:40.142Z,9.57
2023-03-24T03:07:12.912Z,9.52
2023-03-24T03:09:44.718Z,9.45
2023-03-24T03:12:14.037Z,9.42
2023-03-24T03:14:56.131Z,9.35
2023-03-24T03:17:30.736Z,9.40
2023-03-24T03:20:05.011Z,9.29
2023-03-24T03:22:39.360Z,9.14
2023-03-24T03:25:07.236Z,9.12
2023-03-24T03:27:39.193Z,9.10
2023-03-24T03:30:18.525Z,9.07
2023-03-24T03:32:54.368Z,9.02
2023-03-24T03:35:33.783Z,9.00
2023-03-24T03:38:20.187Z,8.94
2023-03-24T03:40:55.830Z,8.86
2023-03-24T03:43:23.596Z,8.82
2023-03-24T03:45:50.359Z,8.75
2023-03-24T03:48:18.082Z,8.73
2023-03-24T03:50:45.984Z,8.71
2023-03-24T03:53:17.275Z,8.73
2023-03-24T03:55:44.402Z,8.75
2023-03-24T03:58:11.297Z,8.68
2023-03-24T04:00:39.128Z,8.66
2023-03-24T04:03:30.293Z,8.64
2023-03-24T04:06:19.596Z,8.63
2023-03-24T04:09:01.531Z,8.57
2023-03-24T04:11:52.881Z,8.66
2023-03-24T04:14:34.836Z,8.62
2023-03-24T04:17:24.220Z,8.58
2023-03-24T04:20:06.840Z,8.51
2023-03-24T04:22:39.324Z,8.47
2023-03-24T04:25:29.296Z,8.42
2023-03-24T04:28:02.868Z,8.37
2023-03-24T04:30:56.113Z,8.38
2023-03-24T04:33:39.177Z,8.29
2023-03-24T04:36:18.374Z,8.30
2023-03-24T04:38:49.010Z,8.24
2023-03-24T04:41:18.014Z,8.18
2023-03-24T04:43:45.575Z,8.19
2023-03-24T04:46:12.460Z,8.13
2023-03-24T04:48:39.047Z,8.11
2023-03-24T04:51:08.587Z,8.19
2023-03-24T04:53:35.101Z,8.21
2023-03-24T04:56:01.558Z,8.25
2023-03-24T04:58:28.133Z,8.18
2023-03-24T05:00:56.545Z,8.05
2023-03-24T05:03:23.264Z,8.10
2023-03-24T05:05:50.661Z,8.13
2023-03-24T05:08:18.903Z,8.11
2023-03-24T05:10:45.983Z,8.13
2023-03-24T05:13:14.690Z,8.19
2023-03-24T05:15:41.471Z,8.17
2023-03-24T05:18:09.262Z,8.13
2023-03-24T05:20:36.103Z,8.11
2023-03-24T05:23:02.900Z,8.11
2023-03-24T05:25:29.432Z,8.08
2023-03-24T05:27:56.080Z,8.00
2023-03-24T05:30:22.809Z,8.01
2023-03-24T05:32:49.451Z,7.98
2023-03-24T05:35:16.085Z,8.01
2023-03-24T05:37:42.703Z,7.96
2023-03-24T05:40:09.952Z,7.91
2023-03-24T05:42:36.518Z,7.96
2023-03-24T05:45:03.629Z,7.89
2023-03-24T05:47:30.397Z,7.96
2023-03-24T05:49:56.924Z,7.90
2023-03-24T05:52:23.504Z,7.86
2023-03-24T05:54:54.540Z,7.95
2023-03-24T05:57:21.572Z,7.96
2023-03-24T05:59:48.122Z,7.99
2023-03-24T06:02:15.058Z,8.08
2023-03-24T06:04:46.367Z,8.08
2023-03-24T06:07:13.485Z,8.16
2023-03-24T06:09:42.642Z,8.13
2023-03-24T06:12:10.338Z,8.21
2023-03-24T06:14:36.996Z,8.17
2023-03-24T06:17:03.595Z,8.27
2023-03-24T06:19:30.945Z,8.22
2023-03-24T06:22:00.587Z,8.24
2023-03-24T06:24:27.798Z,8.28
2023-03-24T06:27:02.178Z,8.32
2023-03-24T06:29:31.728Z,8.32
2023-03-24T06:31:58.312Z,8.36
2023-03-24T06:34:29.318Z,8.32
2023-03-24T06:36:56.440Z,8.40
2023-03-24T06:39:23.955Z,8.44
2023-03-24T06:41:50.630Z,8.59
2023-03-24T06:44:17.140Z,8.61
2023-03-24T06:46:45.809Z,8.70
2023-03-24T06:49:12.410Z,8.69
2023-03-24T06:51:38.923Z,8.75
2023-03-24T06:54:05.504Z,8.81
2023-03-24T06:56:32.402Z,8.86
2023-03-24T06:58:58.968Z,8.85
2023-03-24T07:01:25.543Z,8.93
2023-03-24T07:03:52.204Z,8.98
2023-03-24T07:06:19.420Z,9.04
2023-03-24T07:08:46.030Z,8.98
2023-03-24T07:11:12.620Z,8.92
2023-03-24T07:13:39.205Z,8.94
2023-03-24T07:16:06.580Z,9.20
2023-03-24T07:18:33.280Z,9.55
2023-03-24T07:21:00.296Z,9.69
2023-03-24T07:23:27.693Z,9.57
2023-03-24T07:25:54.605Z,9.88
2023-03-24T07:28:21.371Z,10.09
2023-03-24T07:30:47.921Z,10.49
2023-03-24T07:33:14.511Z,10.25
2023-03-24T07:35:41.800Z,9.93
2023-03-24T07:38:08.493Z,9.86
2023-03-24T07:40:37.837Z,9.74
2023-03-24T07:43:07.928Z,9.66
2023-03-24T07:45:35.767Z,9.61
2023-03-24T07:48:02.521Z,9.51
2023-03-24T07:50:30.742Z,9.54
2023-03-24T07:53:00.041Z,9.50
2023-03-24T07:55:27.461Z,9.66
2023-03-24T07:57:54.737Z,9.79
2023-03-24T08:00:21.837Z,9.90
2023-03-24T08:02:52.162Z,10.23
2023-03-24T08:05:23.283Z,10.23
2023-03-24T08:07:55.813Z,10.27
2023-03-24T08:10:27.838Z,10.27
2023-03-24T08:12:55.528Z,10.10
2023-03-24T08:15:22.317Z,10.05
2023-03-24T08:17:50.585Z,10.34
2023-03-24T08:20:19.344Z,10.46
2023-03-24T08:22:54.249Z,10.63
2023-03-24T08:25:21.796Z,10.40
2023-03-24T08:27:48.697Z,10.55
2023-03-24T08:30:18.350Z,10.75
2023-03-24T08:32:46.951Z,11.16
2023-03-24T08:35:15.237Z,10.95
2023-03-24T08:37:43.268Z,10.71
2023-03-24T08:40:12.039Z,10.61
2023-03-24T08:42:38.598Z,10.32
2023-03-24T08:45:05.407Z,10.27
2023-03-24T08:47:32.084Z,10.18
2023-03-24T08:49:58.988Z,10.45
2023-03-24T08:52:26.104Z,10.35
2023-03-24T08:54:52.777Z,10.54
2023-03-24T08:57:19.430Z,10.56
2023-03-24T08:59:47.345Z,10.65
2023-03-24T09:02:15.418Z,10.44
2023-03-24T09:04:45.936Z,10.30
2023-03-24T09:07:12.685Z,10.24
2023-03-24T09:09:40.015Z,10.55
2023-03-24T09:12:07.354Z,10.50
2023-03-24T09:14:33.962Z,10.32
2023-03-24T09:17:00.715Z,10.36
2023-03-24T09:19:27.420Z,10.18
2023-03-24T09:21:54.081Z,10.14
2023-03-24T09:24:20.729Z,10.10
2023-03-24T09:26:47.236Z,9.99
2023-03-24T09:29:13.831Z,9.98
2023-03-24T09:31:40.430Z,10.00
2023-03-24T09:34:07.085Z,10.28
2023-03-24T09:36:33.646Z,10.18
2023-03-24T09:39:00.208Z,10.33
2023-03-24T09:41:29.150Z,10.74
2023-03-24T09:43:58.614Z,10.76
2023-03-24T09:46:48.572Z,10.61
2023-03-24T09:49:23.484Z,10.48
2023-03-24T09:51:53.383Z,10.35
2023-03-24T09:54:28.962Z,10.24
2023-03-24T09:56:57.478Z,10.38
2023-03-24T09:59:36.392Z,10.88
2023-03-24T10:02:11.452Z,10.82
2023-03-24T10:04:37.996Z,11.17
2023-03-24T10:07:16.355Z,11.61
2023-03-24T10:09:48.736Z,11.68
2023-03-24T10:12:37.679Z,12.17
2023-03-24T10:15:04.162Z,12.48
2023-03-24T10:17:39.864Z,12.63
2023-03-24T10:20:24.454Z,12.82
2023-03-24T10:22:56.851Z,12.77
2023-03-24T10:25:39.050Z,12.55
2023-03-24T10:28:11.747Z,12.43
2023-03-24T10:30:44.377Z,12.15
2023-03-24T10:33:12.697Z,12.02
2023-03-24T10:35:46.647Z,12.13
2023-03-24T10:38:21.916Z,12.05
2023-03-24T10:40:49.364Z,11.64
2023-03-24T10:43:18.881Z,11.63
2023-03-24T10:45:50.240Z,11.64
2023-03-24T10:48:36.172Z,11.96
2023-03-24T10:51:03.524Z,12.12
2023-03-24T10:53:30.147Z,12.33
2023-03-24T10:55:56.704Z,12.27
2023-03-24T10:58:37.684Z,12.70
2023-03-24T11:01:19.724Z,13.03
2023-03-24T11:03:47.712Z,12.98
2023-03-24T11:06:18.464Z,12.91
2023-03-24T11:08:45.021Z,12.93
2023-03-24T11:11:20.585Z,13.07
2023-03-24T11:13:56.988Z,13.13
2023-03-24T11:16:48.072Z,13.46
2023-03-24T11:19:21.022Z,13.47
2023-03-24T11:21:50.962Z,13.53
2023-03-24T11:24:19.567Z,13.47
2023-03-24T11:27:02.418Z,12.98
2023-03-24T11:29:31.909Z,12.37
2023-03-24T11:32:01.956Z,12.10
2023-03-24T11:34:42.161Z,12.16
2023-03-24T11:37:15.164Z,12.37
2023-03-24T11:39:41.778Z,12.35
2023-03-24T11:42:12.039Z,12.53
2023-03-24T11:44:38.767Z,12.94
2023-03-24T11:47:33.646Z,13.29
2023-03-24T11:50:09.237Z,13.43
2023-03-24T11:52:48.911Z,13.45
2023-03-24T11:55:18.127Z,13.42
2023-03-24T11:58:03.901Z,13.58
2023-03-24T12:00:37.547Z,13.59
2023-03-24T12:03:12.771Z,13.65
2023-03-24T12:05:49.640Z,13.74
2023-03-24T12:08:38.905Z,13.73
2023-03-24T12:11:08.244Z,13.71
2023-03-24T12:13:44.089Z,13.57
2023-03-24T12:16:26.084Z,13.78
2023-03-24T12:19:37.153Z,13.26
2023-03-24T12:22:15.594Z,12.96
2023-03-24T12:24:48.963Z,13.24
2023-03-24T12:27:29.009Z,13.44
2023-03-24T12:30:05.707Z,13.31
2023-03-24T12:32:49.888Z,13.56
2023-03-24T12:35:23.323Z,13.70
2023-03-24T12:38:07.717Z,13.52
2023-03-24T12:40:58.606Z,13.62
2023-03-24T12:43:42.445Z,13.40
2023-03-24T12:46:46.546Z,13.13
2023-03-24T12:49:36.684Z,13.34
2023-03-24T12:52:20.334Z,13.42
2023-03-24T12:54:52.779Z,13.87
2023-03-24T12:57:24.800Z,14.09
2023-03-24T13:00:00.820Z,14.33
2023-03-24T13:02:33.472Z,14.21
2023-03-24T13:05:05.549Z,14.05
2023-03-24T13:07:39.127Z,13.67
2023-03-24T13:10:14.614Z,13.61
2023-03-24T13:12:45.917Z,13.44
2023-03-24T13:15:12.440Z,13.12
2023-03-24T13:17:57.398Z,13.42
2023-03-24T13:20:47.185Z,13.49
2023-03-24T13:23:25.796Z,13.30
2023-03-24T13:26:07.398Z,13.28
2023-03-24T13:28:58.073Z,13.53
2023-03-24T13:31:27.732Z,13.49
2023-03-24T13:33:55.860Z,13.36
2023-03-24T13:36:52.931Z,13.38
2023-03-24T13:39:22.498Z,13.54
2023-03-24T13:41:52.108Z,13.54
2023-03-24T13:44:23.065Z,13.38
2023-03-24T13:47:19.742Z,13.35
2023-03-24T13:50:06.947Z,13.11
2023-03-24T13:52:45.129Z,12.93
2023-03-24T13:55:22.499Z,12.77
2023-03-24T13:58:12.889Z,12.92
2023-03-24T14:01:11.080Z,13.27
2023-03-24T14:04:18.456Z,13.50
2023-03-24T14:06:45.023Z,13.46
2023-03-24T14:09:24.464Z,13.52
2023-03-24T14:11:57.158Z,13.46
2023-03-24T14:14:27.702Z,13.40
2023-03-24T14:17:12.887Z,13.14
2023-03-24T14:20:08.615Z,12.82
2023-03-24T14:22:36.351Z,12.57
2023-03-24T14:25:17.980Z,12.32
2023-03-24T14:27:46.515Z,12.08
2023-03-24T14:30:30.583Z,11.92
2023-03-24T14:32:59.368Z,11.75
2023-03-24T14:35:32.266Z,11.68
2023-03-24T14:38:04.918Z,11.69
2023-03-24T14:40:40.903Z,11.76
2023-03-24T14:43:24.681Z,11.95
2023-03-24T14:45:55.768Z,11.99
2023-03-24T14:48:25.844Z,12.18
2023-03-24T14:50:54.234Z,12.38
2023-03-24T14:53:22.319Z,12.64
2023-03-24T14:55:50.148Z,12.80
2023-03-24T14:58:30.901Z,12.65
2023-03-24T15:01:07.465Z,12.75
2023-03-24T15:03:50.333Z,12.92
2023-03-24T15:06:25.275Z,12.59
2023-03-24T15:08:58.593Z,12.47
2023-03-24T15:11:37.001Z,12.57
2023-03-24T15:14:14.079Z,12.75
2023-03-24T15:16:40.846Z,12.70
2023-03-24T15:19:21.474Z,12.66
2023-03-24T15:21:58.499Z,12.58
2023-03-24T15:24:28.043Z,12.64
2023-03-24T15:27:06.892Z,12.54
2023-03-24T15:29:34.312Z,12.55
2023-03-24T15:32:01.131Z,12.51
2023-03-24T15:34:40.933Z,12.56
2023-03-24T15:37:21.590Z,12.63
2023-03-24T15:40:01.781Z,12.54
2023-03-24T15:42:32.734Z,12.59
2023-03-24T15:45:11.329Z,12.59
2023-03-24T15:47:41.936Z,12.61
2023-03-24T15:50:38.876Z,12.53
2023-03-24T15:53:14.392Z,12.43
2023-03-24T15:55:43.463Z,12.44
2023-03-24T15:58:28.518Z,12.20
2023-03-24T16:01:02.817Z,12.21
2023-03-24T16:03:34.325Z,12.09
2023-03-24T16:06:00.992Z,12.10
2023-03-24T16:08:29.083Z,12.07
2023-03-24T16:11:08.042Z,12.00
2023-03-24T16:13:35.455Z,12.00
2023-03-24T16:16:23.570Z,12.04
2023-03-24T16:18:51.089Z,11.94
2023-03-24T16:21:28.139Z,11.96
2023-03-24T16:23:57.295Z,11.96
2023-03-24T16:26:29.643Z,11.90
2023-03-24T16:29:07.938Z,11.79
2023-03-24T16:31:35.655Z,11.81
2023-03-24T16:34:02.260Z,11.79
2023-03-24T16:36:28.812Z,11.71
2023-03-24T16:38:57.386Z,11.79
2023-03-24T16:41:24.745Z,11.69
2023-03-24T16:43:53.234Z,11.56
2023-03-24T16:46:23.030Z,11.45
2023-03-24T16:48:49.775Z,11.32
2023-03-24T16:51:16.878Z,11.24
2023-03-24T16:53:45.362Z,11.17
2023-03-24T16:56:18.527Z,11.21
2023-03-24T16:58:49.183Z,11.16
2023-03-24T17:01:28.205Z,11.11
2023-03-24T17:03:57.407Z,10.97
2023-03-24T17:06:25.301Z,10.95
2023-03-24T17:08:52.342Z,10.96
2023-03-24T17:11:49.826Z,10.94
2023-03-24T17:14:16.688Z,10.80
2023-03-24T17:16:45.265Z,10.87
2023-03-24T17:19:13.885Z,10.79
2023-03-24T17:21:45.104Z,10.67
2023-03-24T17:24:13.121Z,10.65
2023-03-24T17:26:41.219Z,10.59
2023-03-24T17:29:11.244Z,10.54
2023-03-24T17:31:37.869Z,10.45
2023-03-24T17:34:20.419Z,10.39
2023-03-24T17:36:49.877Z,10.39
2023-03-24T17:39:17.853Z,10.33
2023-03-24T17:41:44.763Z,10.33
2023-03-24T17:44:11.371Z,10.17
2023-03-24T17:46:38.271Z,10.16
2023-03-24T17:49:04.958Z,10.14
2023-03-24T17:51:31.473Z,10.26
2023-03-24T17:53:58.364Z,10.14
2023-03-24T17:56:24.877Z,10.06
2023-03-24T17:58:54.687Z,9.90
2023-03-24T18:01:21.843Z,9.94
2023-03-24T18:03:49.938Z,9.89
2023-03-24T18:06:17.154Z,9.85
2023-03-24T18:08:44.114Z,9.75
2023-03-24T18:11:13.123Z,9.76
2023-03-24T18:13:39.859Z,9.74
2023-03-24T18:16:19.962Z,9.68
2023-03-24T18:18:47.888Z,9.71
2023-03-24T18:21:14.822Z,9.80
2023-03-24T18:23:41.592Z,9.76
2023-03-24T18:26:08.490Z,9.70
2023-03-24T18:28:37.422Z,9.75
2023-03-24T18:31:15.899Z,9.66
2023-03-24T18:33:45.827Z,9.72
2023-03-24T18:36:16.562Z,9.66
2023-03-24T18:38:44.185Z,9.69
2023-03-24T18:41:12.979Z,9.72
2023-03-24T18:43:47.363Z,9.83
2023-03-24T18:46:14.400Z,9.67
2023-03-24T18:48:42.821Z,9.67
2023-03-24T18:51:10.285Z,9.78
2023-03-24T18:53:37.504Z,9.77
2023-03-24T18:56:06.059Z,9.69
2023-03-24T18:58:33.690Z,9.67
2023-03-24T19:01:06.901Z,9.60
2023-03-24T19:03:35.697Z,9.68
2023-03-24T19:06:06.331Z,9.64
2023-03-24T19:08:34.804Z,9.57
2023-03-24T19:11:01.722Z,9.49
2023-03-24T19:13:28.424Z,9.47
2023-03-24T19:15:55.210Z,9.45
2023-03-24T19:18:23.778Z,9.57
2023-03-24T19:20:54.524Z,9.62
2023-03-24T19:23:21.388Z,9.58
2023-03-24T19:25:48.640Z,9.49
2023-03-24T19:28:16.526Z,9.59
2023-03-24T19:30:43.236Z,9.49
2023-03-24T19:33:11.389Z,9.62
2023-03-24T19:35:39.101Z,9.55
2023-03-24T19:38:06.094Z,9.48
2023-03-24T19:40:33.002Z,9.37
2023-03-24T19:42:59.616Z,9.28
2023-03-24T19:45:26.227Z,9.27
2023-03-24T19:47:52.822Z,9.34
2023-03-24T19:50:19.493Z,9.33
2023-03-24T19:52:46.202Z,9.35
2023-03-24T19:55:12.971Z,9.30
2023-03-24T19:57:39.779Z,9.22
2023-03-24T20:00:09.347Z,9.17
2023-03-24T20:02:36.934Z,9.26
2023-03-24T20:05:03.806Z,9.12
2023-03-24T20:07:30.619Z,9.15
2023-03-24T20:09:57.178Z,9.17
2023-03-24T20:12:26.808Z,9.10
2023-03-24T20:14:54.422Z,9.04
2023-03-24T20:17:23.487Z,9.04
2023-03-24T20:19:50.780Z,9.00
2023-03-24T20:22:17.402Z,9.01
2023-03-24T20:24:44.706Z,8.96
2023-03-24T20:27:11.702Z,8.96
2023-03-24T20:29:39.721Z,8.92
2023-03-24T20:32:07.415Z,8.96
2023-03-24T20:34:33.959Z,8.89
2023-03-24T20:37:00.551Z,8.93
2023-03-24T20:39:27.167Z,8.85
2023-03-24T20:41:53.671Z,8.82
2023-03-24T20:44:20.283Z,8.75
2023-03-24T20:46:46.934Z,8.63
2023-03-24T20:49:16.597Z,8.62
2023-03-24T20:51:44.357Z,8.62
2023-03-24T20:54:11.638Z,8.67
2023-03-24T20:56:38.557Z,8.67
2023-03-24T20:59:06.933Z,8.61
2023-03-24T21:01:37.378Z,8.64
2023-03-24T21:04:09.035Z,8.61
2023-03-24T21:06:38.728Z,8.63
2023-03-24T21:09:05.872Z,8.62
2023-03-24T21:11:33.412Z,8.54
2023-03-24T21:14:00.584Z,8.64
2023-03-24T21:16:27.817Z,8.62
2023-03-24T21:18:56.017Z,8.64
2023-03-24T21:21:22.760Z,8.60
2023-03-24T21:23:52.729Z,8.63
2023-03-24T21:26:19.526Z,8.63
2023-03-24T21:28:46.313Z,8.57
2023-03-24T21:31:21.591Z,8.60
2023-03-24T21:33:49.102Z,8.65
2023-03-24T21:36:16.064Z,8.66
2023-03-24T21:38:43.146Z,8.66
2023-03-24T21:41:10.008Z,8.66
2023-03-24T21:43:38.372Z,8.71
2023-03-24T21:46:05.327Z,8.70
2023-03-24T21:48:40.553Z,8.76
2023-03-24T21:51:07.164Z,8.76
2023-03-24T21:53:34.957Z,8.84
2023-03-24T21:56:07.183Z,8.83
2023-03-24T21:58:34.881Z,8.85
2023-03-24T22:01:02.229Z,8.85
2023-03-24T22:03:28.905Z,8.92
2023-03-24T22:05:57.476Z,8.93
2023-03-24T22:08:26.810Z,8.87
2023-03-24T22:11:00.317Z,8.80
2023-03-24T22:13:28.331Z,8.68
2023-03-24T22:15:56.690Z,8.72
2023-03-24T22:18:24.162Z,8.68
2023-03-24T22:21:03.316Z,8.59
2023-03-24T22:23:33.104Z,8.63
2023-03-24T22:26:10.830Z,8.68
2023-03-24T22:28:38.454Z,8.72
2023-03-24T22:31:08.518Z,8.65
2023-03-24T22:33:35.882Z,8.75
2023-03-24T22:36:03.826Z,8.79
2023-03-24T22:38:31.254Z,8.78
2023-03-24T22:40:59.728Z,8.77
2023-03-24T22:43:30.448Z,8.77
2023-03-24T22:45:57.453Z,8.73
2023-03-24T22:48:24.385Z,8.77
2023-03-24T22:50:51.411Z,8.77
2023-03-24T22:53:18.025Z,8.84
2023-03-24T22:55:45.059Z,8.86
2023-03-24T22:58:15.548Z,8.85
2023-03-24T23:00:43.732Z,8.79
2023-03-24T23:03:11.291Z,8.84
2023-03-24T23:05:42.225Z,8.90
2023-03-24T23:08:09.685Z,8.91
2023-03-24T23:10:37.112Z,8.92
2023-03-24T23:13:04.301Z,8.92
2023-03-24T23:15:32.029Z,9.03
2023-03-24T23:17:59.553Z,8.98
2023-03-24T23:20:26.426Z,8.97
2023-03-24T23:22:53.021Z,8.93
2023-03-24T23:25:19.621Z,8.92
2023-03-24T23:27:46.759Z,8.97
2023-03-24T23:30:14.642Z,9.00
2023-03-24T23:32:41.442Z,8.98
2023-03-24T23:35:09.038Z,8.91
2023-03-24T23:37:36.671Z,9.04
2023-03-24T23:40:15.027Z,8.94
2023-03-24T23:42:44.640Z,8.98
2023-03-24T23:45:14.836Z,8.98
2023-03-24T23:47:49.748Z,9.02
2023-03-24T23:50:17.815Z,8.96
2023-03-24T23:52:44.532Z,8.94
2023-03-24T23:55:13.195Z,8.96
2023-03-24T23:57:41.673Z,8.94
